createdAt,value
2022-08-21T00:02:05.435Z,21.31
2022-08-21T00:04:33.234Z,21.27
2022-08-21T00:07:01.134Z,21.23
2022-08-21T00:09:29.348Z,21.19
2022-08-21T00:11:57.339Z,21.16
2022-08-21T00:14:26.425Z,21.12
2022-08-21T00:17:00.145Z,21.09
2022-08-21T00:19:29.573Z,21.06
2022-08-21T00:21:58.509Z,21.01
2022-08-21T00:24:28.204Z,20.97
2022-08-21T00:26:56.987Z,20.93
2022-08-21T00:29:25.429Z,20.90
2022-08-21T00:31:55.177Z,20.85
2022-08-21T00:34:22.982Z,20.81
2022-08-21T00:36:51.532Z,20.77
2022-08-21T00:39:19.972Z,20.74
2022-08-21T00:41:50.501Z,20.70
2022-08-21T00:44:18.703Z,20.66
2022-08-21T00:46:47.745Z,20.62
2022-08-21T00:49:16.032Z,20.60
2022-08-21T00:51:53.418Z,20.57
2022-08-21T00:54:25.823Z,20.53
2022-08-21T00:56:57.448Z,20.48
2022-08-21T00:59:31.224Z,20.43
2022-08-21T01:01:59.749Z,20.39
2022-08-21T01:04:28.276Z,20.34
2022-08-21T01:06:57.049Z,20.32
2022-08-21T01:09:25.572Z,20.29
2022-08-21T01:11:53.374Z,20.26
2022-08-21T01:14:22.662Z,20.23
2022-08-21T01:16:54.346Z,20.21
2022-08-21T01:19:25.136Z,20.19
2022-08-21T01:21:54.859Z,20.15
2022-08-21T01:24:23.929Z,20.12
2022-08-21T01:26:52.527Z,20.10
2022-08-21T01:29:44.061Z,20.06
2022-08-21T01:32:16.234Z,20.04
2022-08-21T01:34:48.096Z,20.02
2022-08-21T01:37:18.015Z,19.99
2022-08-21T01:39:46.939Z,19.95
2022-08-21T01:42:15.493Z,19.92
2022-08-21T01:44:44.366Z,19.89
2022-08-21T01:47:18.236Z,19.85
2022-08-21T01:49:46.852Z,19.82
2022-08-21T01:52:15.097Z,19.79
2022-08-21T01:54:43.982Z,19.75
2022-08-21T01:57:15.171Z,19.72
2022-08-21T01:59:43.514Z,19.69
2022-08-21T02:02:11.717Z,19.67
2022-08-21T02:04:40.947Z,19.65
2022-08-21T02:07:10.357Z,19.62
2022-08-21T02:09:40.269Z,19.58
2022-08-21T02:12:09.632Z,19.57
2022-08-21T02:14:37.601Z,19.54
2022-08-21T02:17:09.831Z,19.52
2022-08-21T02:19:40.520Z,19.49
2022-08-21T02:22:12.118Z,19.46
2022-08-21T02:24:53.827Z,19.44
2022-08-21T02:27:27.462Z,19.42
2022-08-21T02:29:58.736Z,19.40
2022-08-21T02:32:27.242Z,19.37
2022-08-21T02:34:56.603Z,19.35
2022-08-21T02:37:25.670Z,19.31
2022-08-21T02:39:53.708Z,19.30
2022-08-21T02:42:22.959Z,19.28
2022-08-21T02:44:52.033Z,19.25
2022-08-21T02:47:19.818Z,19.21
2022-08-21T02:49:48.382Z,19.18
2022-08-21T02:52:17.373Z,19.15
2022-08-21T02:54:45.102Z,19.13
2022-08-21T02:57:13.754Z,19.11
2022-08-21T02:59:42.307Z,19.10
2022-08-21T03:02:10.721Z,19.06
2022-08-21T03:04:41.365Z,19.03
2022-08-21T03:07:11.558Z,19.01
2022-08-21T03:09:45.543Z,18.98
2022-08-21T03:12:27.899Z,18.94
2022-08-21T03:14:59.378Z,18.91
2022-08-21T03:17:30.003Z,18.88
2022-08-21T03:19:59.657Z,18.83
2022-08-21T03:22:30.710Z,18.81
2022-08-21T03:25:01.547Z,18.78
2022-08-21T03:27:35.807Z,18.76
2022-08-21T03:30:09.125Z,18.74
2022-08-21T03:32:37.691Z,18.72
2022-08-21T03:35:06.677Z,18.71
2022-08-21T03:37:35.497Z,18.69
2022-08-21T03:40:08.807Z,18.67
2022-08-21T03:42:37.126Z,18.67
2022-08-21T03:45:07.020Z,18.67
2022-08-21T03:47:34.823Z,18.66
2022-08-21T03:50:05.643Z,18.66
2022-08-21T03:52:33.420Z,18.65
2022-08-21T03:55:01.146Z,18.65
2022-08-21T03:57:28.965Z,18.64
2022-08-21T03:59:57.192Z,18.65
2022-08-21T04:02:25.107Z,18.65
2022-08-21T04:04:52.871Z,18.65
2022-08-21T04:07:20.705Z,18.64
2022-08-21T04:09:48.527Z,18.63
2022-08-21T04:12:16.365Z,18.63
2022-08-21T04:14:44.151Z,18.63
2022-08-21T04:17:11.952Z,18.64
2022-08-21T04:19:39.773Z,18.64
2022-08-21T04:22:07.486Z,18.65
2022-08-21T04:24:35.755Z,18.66
2022-08-21T04:27:03.699Z,18.67
2022-08-21T04:29:31.998Z,18.69
2022-08-21T04:32:02.807Z,18.71
2022-08-21T04:34:30.557Z,18.75
2022-08-21T04:36:58.326Z,18.77
2022-08-21T04:39:29.723Z,18.79
2022-08-21T04:41:58.156Z,18.82
2022-08-21T04:44:25.967Z,18.84
2022-08-21T04:46:54.113Z,18.87
2022-08-21T04:49:21.859Z,18.91
2022-08-21T04:51:50.729Z,18.94
2022-08-21T04:54:23.309Z,18.98
2022-08-21T04:56:55.743Z,19.02
2022-08-21T04:59:33.052Z,19.07
2022-08-21T05:02:03.002Z,19.11
2022-08-21T05:04:34.438Z,19.17
2022-08-21T05:07:07.599Z,19.23
2022-08-21T05:09:38.015Z,19.28
2022-08-21T05:12:06.788Z,19.32
2022-08-21T05:14:34.655Z,19.37
2022-08-21T05:17:02.431Z,19.44
2022-08-21T05:19:30.353Z,19.49
2022-08-21T05:21:59.078Z,19.55
2022-08-21T05:24:27.485Z,19.61
2022-08-21T05:26:55.349Z,19.67
2022-08-21T05:29:23.266Z,19.73
2022-08-21T05:31:52.802Z,19.79
2022-08-21T05:34:24.491Z,19.85
2022-08-21T05:36:52.719Z,19.90
2022-08-21T05:39:20.496Z,19.96
2022-08-21T05:41:49.190Z,20.01
2022-08-21T05:44:17.037Z,20.07
2022-08-21T05:46:45.322Z,20.12
2022-08-21T05:49:13.663Z,20.18
2022-08-21T05:51:43.420Z,20.25
2022-08-21T05:54:12.540Z,20.31
2022-08-21T05:56:40.300Z,20.37
2022-08-21T05:59:09.193Z,20.44
2022-08-21T06:01:37.125Z,20.50
2022-08-21T06:04:06.299Z,20.56
2022-08-21T06:06:35.411Z,20.63
2022-08-21T06:09:05.422Z,20.71
2022-08-21T06:11:33.516Z,20.78
2022-08-21T06:14:01.545Z,20.86
2022-08-21T06:16:30.838Z,20.93
2022-08-21T06:19:02.634Z,21.01
2022-08-21T06:21:31.500Z,21.10
2022-08-21T06:23:59.318Z,21.19
2022-08-21T06:26:29.426Z,21.27
2022-08-21T06:28:59.931Z,21.35
2022-08-21T06:31:29.928Z,21.42
2022-08-21T06:33:58.878Z,21.50
2022-08-21T06:36:27.039Z,21.57
2022-08-21T06:38:57.835Z,21.65
2022-08-21T06:41:27.229Z,21.74
2022-08-21T06:43:58.523Z,21.83
2022-08-21T06:46:30.527Z,21.92
2022-08-21T06:49:00.109Z,22.01
2022-08-21T06:51:28.675Z,22.10
2022-08-21T06:53:59.444Z,22.21
2022-08-21T06:56:27.999Z,22.28
2022-08-21T06:58:57.994Z,22.35
2022-08-21T07:01:28.802Z,22.45
2022-08-21T07:03:56.624Z,22.56
2022-08-21T07:06:26.309Z,22.64
2022-08-21T07:08:54.161Z,22.73
2022-08-21T07:11:27.402Z,22.84
2022-08-21T07:13:57.713Z,22.98
2022-08-21T07:16:25.660Z,23.18
2022-08-21T07:18:54.107Z,24.02
2022-08-21T07:21:25.818Z,25.63
2022-08-21T07:23:55.262Z,27.31
2022-08-21T07:26:25.407Z,28.86
2022-08-21T07:28:55.486Z,30.33
2022-08-21T07:31:26.210Z,31.67
2022-08-21T07:33:55.466Z,32.94
2022-08-21T07:36:24.831Z,34.12
2022-08-21T07:38:53.170Z,35.21
2022-08-21T07:41:29.592Z,36.28
2022-08-21T07:44:01.177Z,37.32
2022-08-21T07:46:29.114Z,38.19
2022-08-21T07:48:57.523Z,38.91
2022-08-21T07:51:30.380Z,39.58
2022-08-21T07:54:00.721Z,40.31
2022-08-21T07:56:32.511Z,41.10
2022-08-21T07:59:00.553Z,41.88
2022-08-21T08:01:28.875Z,42.48
2022-08-21T08:03:57.415Z,42.93
2022-08-21T08:06:26.813Z,43.34
2022-08-21T08:08:54.743Z,43.79
2022-08-21T08:11:23.736Z,44.24
2022-08-21T08:13:53.539Z,44.50
2022-08-21T08:16:21.303Z,44.75
2022-08-21T08:18:51.560Z,44.89
2022-08-21T08:21:22.322Z,45.00
2022-08-21T08:23:51.051Z,45.02
2022-08-21T08:26:18.883Z,44.51
2022-08-21T08:28:49.085Z,44.66
2022-08-21T08:31:16.884Z,44.93
2022-08-21T08:33:45.084Z,45.01
2022-08-21T08:36:16.041Z,44.75
2022-08-21T08:38:44.534Z,44.78
2022-08-21T08:41:15.283Z,45.01
2022-08-21T08:43:53.360Z,45.33
2022-08-21T08:46:47.740Z,45.57
2022-08-21T08:49:36.407Z,45.75
2022-08-21T08:52:29.762Z,45.90
2022-08-21T08:55:25.360Z,46.11
2022-08-21T08:57:58.466Z,45.89
2022-08-21T09:00:26.535Z,45.54
2022-08-21T09:02:59.780Z,45.15
2022-08-21T09:05:47.303Z,44.56
2022-08-21T09:08:39.236Z,43.41
2022-08-21T09:11:25.636Z,42.56
2022-08-21T09:14:15.383Z,41.86
2022-08-21T09:16:52.196Z,41.46
2022-08-21T09:19:36.624Z,41.36
2022-08-21T09:22:16.841Z,41.53
2022-08-21T09:25:13.011Z,41.72
2022-08-21T09:27:40.860Z,41.89
2022-08-21T09:30:11.600Z,42.12
2022-08-21T09:32:40.533Z,42.39
2022-08-21T09:35:15.035Z,42.64
2022-08-21T09:38:02.018Z,42.85
2022-08-21T09:40:41.813Z,42.92
2022-08-21T09:43:12.684Z,42.84
2022-08-21T09:45:46.721Z,42.52
2022-08-21T09:48:16.261Z,42.26
2022-08-21T09:50:45.091Z,42.03
2022-08-21T09:53:29.090Z,41.35
2022-08-21T09:56:24.390Z,40.30
2022-08-21T09:58:53.444Z,39.00
2022-08-21T10:01:24.282Z,38.17
2022-08-21T10:04:09.166Z,37.46
2022-08-21T10:06:37.505Z,36.81
2022-08-21T10:09:05.249Z,36.23
2022-08-21T10:11:35.537Z,35.74
2022-08-21T10:14:16.002Z,35.40
2022-08-21T10:17:15.615Z,35.20
2022-08-21T10:20:12.663Z,35.02
2022-08-21T10:23:06.837Z,34.80
2022-08-21T10:25:56.420Z,34.51
2022-08-21T10:28:45.354Z,34.24
2022-08-21T10:31:41.001Z,34.09
2022-08-21T10:34:17.981Z,33.99
2022-08-21T10:36:57.315Z,33.95
2022-08-21T10:39:36.541Z,33.94
2022-08-21T10:42:28.663Z,33.92
2022-08-21T10:45:20.093Z,33.89
2022-08-21T10:47:58.146Z,33.91
2022-08-21T10:50:43.037Z,33.92
2022-08-21T10:53:32.569Z,33.92
2022-08-21T10:56:24.984Z,33.87
2022-08-21T10:59:20.629Z,33.72
2022-08-21T11:02:01.945Z,33.67
2022-08-21T11:04:49.375Z,33.64
2022-08-21T11:07:27.074Z,33.62
2022-08-21T11:10:06.942Z,33.57
2022-08-21T11:12:44.434Z,33.39
2022-08-21T11:15:48.973Z,33.24
2022-08-21T11:18:33.662Z,33.13
2022-08-21T11:21:17.563Z,33.10
2022-08-21T11:23:58.674Z,33.05
2022-08-21T11:26:36.449Z,33.00
2022-08-21T11:29:18.041Z,33.03
2022-08-21T11:32:24.097Z,33.01
2022-08-21T11:35:23.813Z,32.91
2022-08-21T11:37:57.173Z,32.86
2022-08-21T11:40:57.871Z,32.80
2022-08-21T11:43:38.917Z,32.85
2022-08-21T11:46:25.419Z,32.92
2022-08-21T11:49:06.904Z,32.92
2022-08-21T11:51:42.451Z,32.89
2022-08-21T11:54:35.406Z,32.89
2022-08-21T11:57:09.509Z,32.87
2022-08-21T11:59:46.507Z,32.80
2022-08-21T12:02:19.551Z,32.53
2022-08-21T12:04:55.438Z,32.24
2022-08-21T12:07:34.570Z,31.95
2022-08-21T12:10:09.228Z,31.71
2022-08-21T12:12:40.339Z,31.42
2022-08-21T12:15:17.362Z,31.12
2022-08-21T12:18:08.736Z,30.84
2022-08-21T12:20:50.001Z,30.56
2022-08-21T12:23:27.927Z,30.27
2022-08-21T12:26:15.413Z,30.02
2022-08-21T12:28:43.195Z,29.85
2022-08-21T12:31:26.774Z,29.77
2022-08-21T12:34:03.831Z,29.70
2022-08-21T12:36:56.870Z,29.71
2022-08-21T12:39:28.742Z,29.72
2022-08-21T12:42:24.122Z,29.69
2022-08-21T12:45:02.070Z,29.62
2022-08-21T12:47:46.075Z,29.56
2022-08-21T12:50:22.127Z,29.54
2022-08-21T12:53:00.501Z,29.58
2022-08-21T12:55:33.717Z,29.61
2022-08-21T12:58:04.189Z,29.66
2022-08-21T13:00:32.667Z,29.70
2022-08-21T13:03:02.136Z,29.75
2022-08-21T13:05:37.628Z,29.72
2022-08-21T13:08:09.174Z,29.68
2022-08-21T13:10:38.909Z,29.62
2022-08-21T13:13:15.478Z,29.59
2022-08-21T13:16:00.215Z,29.55
2022-08-21T13:18:32.890Z,29.48
2022-08-21T13:21:12.637Z,29.42
2022-08-21T13:23:42.029Z,29.38
2022-08-21T13:26:20.386Z,29.36
2022-08-21T13:28:50.596Z,29.34
2022-08-21T13:31:26.507Z,29.30
2022-08-21T13:33:56.294Z,29.26
2022-08-21T13:36:38.327Z,29.21
2022-08-21T13:39:10.760Z,29.19
2022-08-21T13:41:42.804Z,29.16
2022-08-21T13:44:21.159Z,29.14
2022-08-21T13:46:51.725Z,29.09
2022-08-21T13:49:29.173Z,29.05
2022-08-21T13:51:58.003Z,29.01
2022-08-21T13:54:31.468Z,28.97
2022-08-21T13:56:59.531Z,28.94
2022-08-21T13:59:37.994Z,28.94
2022-08-21T14:02:15.334Z,28.92
2022-08-21T14:04:57.772Z,28.88
2022-08-21T14:07:37.408Z,28.83
2022-08-21T14:10:17.406Z,28.78
2022-08-21T14:12:56.984Z,28.73
2022-08-21T14:15:35.225Z,28.67
2022-08-21T14:18:18.542Z,28.62
2022-08-21T14:20:47.611Z,28.57
2022-08-21T14:23:29.564Z,28.54
2022-08-21T14:26:06.191Z,28.49
2022-08-21T14:28:42.059Z,28.43
2022-08-21T14:31:21.954Z,28.40
2022-08-21T14:33:51.224Z,28.35
2022-08-21T14:36:18.945Z,28.30
2022-08-21T14:38:49.191Z,28.23
2022-08-21T14:41:22.865Z,28.17
2022-08-21T14:44:05.928Z,28.11
2022-08-21T14:46:47.302Z,28.06
2022-08-21T14:49:29.815Z,28.00
2022-08-21T14:52:00.361Z,27.95
2022-08-21T14:54:32.743Z,27.91
2022-08-21T14:57:06.327Z,27.87
2022-08-21T14:59:36.525Z,27.83
2022-08-21T15:02:06.126Z,27.79
2022-08-21T15:04:35.699Z,27.74
2022-08-21T15:07:07.738Z,27.72
2022-08-21T15:09:36.814Z,27.67
2022-08-21T15:12:07.010Z,27.65
2022-08-21T15:14:39.463Z,27.62
2022-08-21T15:17:11.840Z,27.59
2022-08-21T15:19:42.000Z,27.56
2022-08-21T15:22:18.762Z,27.54
2022-08-21T15:24:50.522Z,27.51
2022-08-21T15:27:20.953Z,27.48
2022-08-21T15:29:51.373Z,27.46
2022-08-21T15:32:24.902Z,27.45
2022-08-21T15:34:55.126Z,27.42
2022-08-21T15:37:26.179Z,27.38
2022-08-21T15:39:55.601Z,27.36
2022-08-21T15:42:27.895Z,27.35
2022-08-21T15:44:58.634Z,27.33
2022-08-21T15:47:32.622Z,27.31
2022-08-21T15:50:03.386Z,27.30
2022-08-21T15:52:32.894Z,27.29
2022-08-21T15:55:01.876Z,27.28
2022-08-21T15:57:32.395Z,27.27
2022-08-21T16:00:14.197Z,27.25
2022-08-21T16:02:49.457Z,27.24
2022-08-21T16:05:19.605Z,27.21
2022-08-21T16:07:50.525Z,27.19
2022-08-21T16:10:24.072Z,27.17
2022-08-21T16:13:04.540Z,27.14
2022-08-21T16:15:32.577Z,27.12
2022-08-21T16:18:03.313Z,27.11
2022-08-21T16:20:31.345Z,27.09
2022-08-21T16:23:01.822Z,27.06
2022-08-21T16:25:38.308Z,27.02
2022-08-21T16:28:14.703Z,26.99
2022-08-21T16:30:48.179Z,26.97
2022-08-21T16:33:26.746Z,26.96
2022-08-21T16:35:54.995Z,26.95
2022-08-21T16:38:24.182Z,26.92
2022-08-21T16:40:52.666Z,26.89
2022-08-21T16:43:31.048Z,26.86
2022-08-21T16:46:02.953Z,26.83
2022-08-21T16:48:32.348Z,26.80
2022-08-21T16:51:01.520Z,26.78
2022-08-21T16:53:30.642Z,26.76
2022-08-21T16:55:59.950Z,26.73
2022-08-21T16:58:35.338Z,26.71
2022-08-21T17:01:16.396Z,26.68
2022-08-21T17:03:51.375Z,26.66
2022-08-21T17:06:23.127Z,26.62
2022-08-21T17:09:02.689Z,26.60
2022-08-21T17:11:42.214Z,26.57
2022-08-21T17:14:21.105Z,26.53
2022-08-21T17:16:54.301Z,26.49
2022-08-21T17:19:25.483Z,26.46
2022-08-21T17:21:53.599Z,26.43
2022-08-21T17:24:22.733Z,26.40
2022-08-21T17:26:56.743Z,26.37
2022-08-21T17:29:35.250Z,26.35
2022-08-21T17:32:14.142Z,26.31
2022-08-21T17:34:45.182Z,26.30
2022-08-21T17:37:16.044Z,26.27
2022-08-21T17:39:43.887Z,26.25
2022-08-21T17:42:14.520Z,26.23
2022-08-21T17:44:46.023Z,26.21
2022-08-21T17:47:15.301Z,26.18
2022-08-21T17:49:43.267Z,26.16
2022-08-21T17:52:11.087Z,26.14
2022-08-21T17:54:42.589Z,26.13
2022-08-21T17:57:19.527Z,26.12
2022-08-21T17:59:54.125Z,26.10
2022-08-21T18:02:30.645Z,26.09
2022-08-21T18:04:58.371Z,26.07
2022-08-21T18:07:32.750Z,26.05
2022-08-21T18:10:07.556Z,26.03
2022-08-21T18:12:38.468Z,26.01
2022-08-21T18:15:08.967Z,25.99
2022-08-21T18:17:38.428Z,25.97
2022-08-21T18:20:09.582Z,25.95
2022-08-21T18:22:38.164Z,25.92
2022-08-21T18:25:06.387Z,25.89
2022-08-21T18:27:34.301Z,25.85
2022-08-21T18:30:02.149Z,25.82
2022-08-21T18:32:31.637Z,25.79
2022-08-21T18:35:03.992Z,25.74
2022-08-21T18:37:33.811Z,25.69
2022-08-21T18:40:03.006Z,25.64
2022-08-21T18:42:36.335Z,25.61
2022-08-21T18:45:08.892Z,25.60
2022-08-21T18:47:41.534Z,25.57
2022-08-21T18:50:12.750Z,25.54
2022-08-21T18:55:30.201Z,25.47
2022-08-21T18:57:58.968Z,25.43
2022-08-21T19:00:30.657Z,25.41
2022-08-21T19:03:01.384Z,25.38
2022-08-21T19:05:29.585Z,25.36
2022-08-21T19:07:59.725Z,25.34
2022-08-21T19:10:31.934Z,25.31
2022-08-21T19:13:02.261Z,25.29
2022-08-21T19:15:34.537Z,25.26
2022-08-21T19:18:05.422Z,25.23
2022-08-21T19:20:38.877Z,25.21
2022-08-21T19:23:08.479Z,25.17
2022-08-21T19:25:41.921Z,25.13
2022-08-21T19:28:15.946Z,25.10
2022-08-21T19:30:53.283Z,25.07
2022-08-21T19:33:30.270Z,25.04
2022-08-21T19:36:00.377Z,25.01
2022-08-21T19:38:29.208Z,24.98
2022-08-21T19:40:59.154Z,24.95
2022-08-21T19:43:29.659Z,24.92
2022-08-21T19:46:00.858Z,24.89
2022-08-21T19:48:28.797Z,24.86
2022-08-21T19:50:56.591Z,24.82
2022-08-21T19:53:24.447Z,24.79
2022-08-21T19:55:53.741Z,24.77
2022-08-21T19:58:41.840Z,24.75
2022-08-21T20:01:16.856Z,24.72
2022-08-21T20:03:54.147Z,24.70
2022-08-21T20:06:26.689Z,24.68
2022-08-21T20:08:57.040Z,24.66
2022-08-21T20:11:37.908Z,24.64
2022-08-21T20:14:08.827Z,24.62
2022-08-21T20:16:39.258Z,24.60
2022-08-21T20:19:11.415Z,24.58
2022-08-21T20:21:44.618Z,24.56
2022-08-21T20:27:07.682Z,24.52
2022-08-21T20:29:39.440Z,24.50
2022-08-21T20:32:12.289Z,24.47
2022-08-21T20:34:41.900Z,24.44
2022-08-21T20:40:11.159Z,24.35
2022-08-21T20:42:48.626Z,24.31
2022-08-21T20:45:21.854Z,24.28
2022-08-21T20:48:03.136Z,24.23
2022-08-21T20:50:37.236Z,24.18
2022-08-21T20:53:26.182Z,24.12
2022-08-21T20:56:22.955Z,24.06
2022-08-21T20:59:16.904Z,24.00
2022-08-21T21:01:49.827Z,23.95
2022-08-21T21:04:30.483Z,23.89
2022-08-21T21:07:01.801Z,23.83
2022-08-21T21:09:45.029Z,23.77
2022-08-21T21:12:35.729Z,23.72
2022-08-21T21:15:27.974Z,23.64
2022-08-21T21:18:25.119Z,23.58
2022-08-21T21:21:13.226Z,23.51
2022-08-21T21:23:54.439Z,23.43
2022-08-21T21:26:29.191Z,23.36
2022-08-21T21:29:09.933Z,23.30
2022-08-21T21:31:43.743Z,23.23
2022-08-21T21:37:14.240Z,23.06
2022-08-21T21:40:02.541Z,22.99
2022-08-21T21:42:37.903Z,22.91
2022-08-21T21:45:23.479Z,22.84
2022-08-21T21:48:30.907Z,22.76
2022-08-21T21:51:16.840Z,22.68
2022-08-21T21:54:14.213Z,22.64
2022-08-21T21:57:10.543Z,22.58
2022-08-21T21:59:58.226Z,22.53
2022-08-21T22:02:51.286Z,22.49
2022-08-21T22:05:34.663Z,22.41
2022-08-21T22:08:08.661Z,22.33
2022-08-21T22:10:48.592Z,22.24
2022-08-21T22:13:46.712Z,22.15
2022-08-21T22:16:18.561Z,22.08
2022-08-21T22:19:23.987Z,22.03
2022-08-21T22:22:09.052Z,21.98
2022-08-21T22:24:45.126Z,21.92
2022-08-21T22:27:36.267Z,21.84
2022-08-21T22:30:08.390Z,21.77
2022-08-21T22:32:59.753Z,21.69
2022-08-21T22:35:33.518Z,21.60
2022-08-21T22:38:19.818Z,21.51
2022-08-21T22:40:51.806Z,21.41
2022-08-21T22:43:25.582Z,21.32
2022-08-21T22:46:06.041Z,21.24
2022-08-21T22:51:43.865Z,21.09
2022-08-21T22:54:33.934Z,21.03
2022-08-21T22:57:16.789Z,20.97
2022-08-21T23:00:25.695Z,20.89
2022-08-21T23:05:54.473Z,20.64
2022-08-21T23:08:39.265Z,20.57
2022-08-21T23:11:23.451Z,20.51
2022-08-21T23:13:56.654Z,20.43
2022-08-21T23:16:55.040Z,20.35
2022-08-21T23:22:49.012Z,20.25
2022-08-21T23:25:48.715Z,20.20
2022-08-21T23:28:41.787Z,20.17
2022-08-21T23:31:22.957Z,20.12
2022-08-21T23:34:07.620Z,20.10
2022-08-21T23:37:13.789Z,20.07
2022-08-21T23:40:07.445Z,20.04
2022-08-21T23:43:13.206Z,20.03
2022-08-21T23:46:00.167Z,20.00
2022-08-21T23:48:55.300Z,19.99
2022-08-21T23:51:45.157Z,19.94
2022-08-21T23:55:15.360Z,19.88
2022-08-21T23:57:55.560Z,19.83
